Jefferson, NC

11:09 AM EST on December 06, 2016 (GMT -0500)
580 WKSK & 93.5 FM The Farm | | Change Station

Elev 3146 ft 36.41 °N, 81.50 °W | Updated 31 seconds ago

Rain
Rain
34.9 °F
Feels Like 35 °F
N
3.0
Wind Variable Wind from NNE
Gusts 11.0 mph

Today
High -- | Low -- °F
--% Chance of Precip.
Yesterday
High -- | Low -- °F
Precip. -- in
Pressure 29.83 in
Visibility 1.5 miles
Clouds Overcast 400 ft
Windchill 35 °F
Dew Point 34 °F
Humidity 97%
Rainfall 0.60 in
Snow Depth Not available.
7:23 AM 5:10 PM
Waxing Crescent, 43% visible
METAR KGEV 061555Z AUTO 18003KT 1 1/2SM RA OVC004 01/01 A2983 RMK AO2 VIS 3/4V2 1/2 P0013 T00140013
Pressure 29.83 in
Visibility 1.5 miles
Clouds Overcast 400 ft
Windchill 35 °F
Dew Point 34 °F
Humidity 97%
Rainfall 0.60 in
Snow Depth Not available.
7:23 AM 5:10 PM
Waxing Crescent, 43% visible
METAR KGEV 061555Z AUTO 18003KT 1 1/2SM RA OVC004 01/01 A2983 RMK AO2 VIS 3/4V2 1/2 P0013 T00140013

10-Day Weather Forecast

Almanac

Astronomy

Dec. 06, 2016 Rise Set
Actual Time
Civil Twilight
Nautical Twilight
Astronomical Twilight
Moon
Length of Visible Light
Length of Day
Tomorrow will be .
, % of the Moon is Illuminated

Today's Extremes

State Highs State Lows

Community

WunderPhotos

Upload Photos

1,955,965 photos uploaded!

WunderBlog® & News

Nearby

Air Quality

  Air Quality AQ Index Pollutant
Not available.

Snow Depth

Station Depth Elevation

Earthquake Activity

City Distance Mag. Time & Date
Minimum magnitude displayed is 2.5.

Coastal Water Temperatures

Place Temperature

Stations

Nearby Weather Stations

Station Location Temp. Windchill Dew Point Humidity Wind Precip. Elev Updated Type
                   

Watches & Warnings

There are currently no watches in effect.